createdAt,value
2019-05-12T00:00:39.650Z,47.15
2019-05-12T00:03:34.952Z,50.00
2019-05-12T00:06:29.939Z,48.63
2019-05-12T00:09:28.068Z,45.78
2019-05-12T00:12:20.496Z,46.55
2019-05-12T00:15:15.662Z,44.00
2019-05-12T00:18:10.656Z,52.33
2019-05-12T00:21:05.693Z,64.62
2019-05-12T00:24:15.559Z,54.13
2019-05-12T00:27:12.358Z,49.95
2019-05-12T00:30:09.894Z,44.58
2019-05-12T00:33:03.362Z,64.58
2019-05-12T00:35:58.880Z,50.45
2019-05-12T00:38:54.396Z,61.08
2019-05-12T00:41:49.218Z,47.33
2019-05-12T00:44:44.254Z,52.70
2019-05-12T00:47:39.041Z,61.50
2019-05-12T00:50:33.872Z,57.13
2019-05-12T00:53:39.606Z,56.45
2019-05-12T00:56:24.509Z,47.15
2019-05-12T00:59:19.786Z,68.65
2019-05-12T01:02:14.262Z,59.30
2019-05-12T01:05:08.913Z,59.27
2019-05-12T01:08:04.871Z,59.58
2019-05-12T01:10:59.449Z,60.23
2019-05-12T01:13:55.266Z,62.33
2019-05-12T01:16:50.187Z,57.85
2019-05-12T01:19:44.983Z,66.12
2019-05-12T01:22:40.147Z,75.97
2019-05-12T01:25:36.241Z,71.53
2019-05-12T01:28:31.120Z,63.60
2019-05-12T01:31:28.479Z,72.00
2019-05-12T01:34:23.868Z,64.25
2019-05-12T01:37:28.141Z,70.78
2019-05-12T01:43:45.623Z,74.67
2019-05-12T01:46:40.750Z,77.53
2019-05-12T01:49:38.104Z,74.15
2019-05-12T01:52:31.355Z,64.60
2019-05-12T01:55:28.063Z,71.47
2019-05-12T01:58:21.073Z,63.45
2019-05-12T02:01:15.664Z,67.53
2019-05-12T02:04:10.144Z,72.97
2019-05-12T02:07:05.416Z,66.17
2019-05-12T02:10:00.315Z,78.42
2019-05-12T02:12:55.169Z,70.30
2019-05-12T02:15:49.924Z,87.78
2019-05-12T02:18:44.823Z,78.62
2019-05-12T02:21:40.364Z,79.15
2019-05-12T02:24:34.867Z,81.20
2019-05-12T02:27:29.763Z,86.05
2019-05-12T02:30:24.973Z,86.92
2019-05-12T02:33:19.820Z,87.30
2019-05-12T02:36:15.258Z,81.92
2019-05-12T02:39:14.649Z,80.42
2019-05-12T02:42:06.533Z,77.00
2019-05-12T02:45:05.224Z,59.23
2019-05-12T02:47:58.145Z,61.77
2019-05-12T02:50:54.504Z,78.05
2019-05-12T02:53:49.066Z,99.72
2019-05-12T02:56:44.980Z,87.78
2019-05-12T02:59:40.620Z,87.55
2019-05-12T03:02:36.123Z,87.65
2019-05-12T03:05:34.867Z,88.58
2019-05-12T03:08:28.621Z,91.67
2019-05-12T03:11:24.817Z,103.22
2019-05-12T03:14:19.626Z,77.10
2019-05-12T03:17:15.348Z,66.90
2019-05-12T03:20:15.031Z,77.50
2019-05-12T03:23:07.272Z,77.75
2019-05-12T03:26:05.094Z,78.60
2019-05-12T03:28:57.458Z,83.75
2019-05-12T03:31:56.681Z,67.37
2019-05-12T03:34:47.915Z,71.77
2019-05-12T03:37:45.305Z,66.35
2019-05-12T03:40:39.068Z,75.03
2019-05-12T03:43:35.161Z,58.02
2019-05-12T03:46:30.037Z,63.10
2019-05-12T03:49:24.861Z,50.85
2019-05-12T03:52:24.407Z,77.90
2019-05-12T03:55:30.815Z,67.58
2019-05-12T03:58:15.257Z,58.95
2019-05-12T04:01:09.655Z,61.75
2019-05-12T04:04:05.215Z,64.27
2019-05-12T04:06:59.686Z,49.18
2019-05-12T04:09:54.979Z,53.73
2019-05-12T04:12:50.181Z,68.20
2019-05-12T04:15:45.892Z,65.92
2019-05-12T04:18:40.851Z,69.77
2019-05-12T04:21:36.106Z,72.03
2019-05-12T04:24:35.614Z,77.08
2019-05-12T04:27:27.540Z,69.47
2019-05-12T04:30:25.114Z,68.05
2019-05-12T04:33:17.913Z,72.78
2019-05-12T04:36:14.899Z,66.47
2019-05-12T04:39:10.839Z,71.97
2019-05-12T04:42:05.631Z,70.15
2019-05-12T04:45:00.594Z,61.77
2019-05-12T04:47:55.428Z,69.25
2019-05-12T04:50:50.604Z,59.98
2019-05-12T04:53:45.509Z,63.13
2019-05-12T04:56:44.322Z,58.92
2019-05-12T04:59:37.087Z,53.00
2019-05-12T05:02:35.110Z,59.30
2019-05-12T05:05:27.988Z,35.85
2019-05-12T05:08:24.312Z,38.95
2019-05-12T05:11:18.450Z,35.98
2019-05-12T05:14:14.743Z,37.33
2019-05-12T05:17:09.700Z,46.80
2019-05-12T05:20:05.622Z,45.98
2019-05-12T05:23:03.327Z,62.10
2019-05-12T05:25:59.078Z,51.85
2019-05-12T05:28:54.711Z,42.05
2019-05-12T05:31:53.269Z,41.73
2019-05-12T05:34:55.716Z,33.60
2019-05-12T05:37:44.112Z,40.03
2019-05-12T05:40:37.881Z,40.52
2019-05-12T05:43:33.551Z,41.33
2019-05-12T05:46:28.606Z,36.15
2019-05-12T05:49:23.773Z,44.25
2019-05-12T05:52:18.783Z,40.15
2019-05-12T05:55:18.127Z,38.92
2019-05-12T05:58:10.541Z,48.50
2019-05-12T06:01:07.973Z,44.60
2019-05-12T06:04:04.473Z,39.08
2019-05-12T06:06:56.168Z,35.75
2019-05-12T06:09:53.562Z,45.35
2019-05-12T06:12:50.782Z,46.23
2019-05-12T06:15:43.380Z,52.38
2019-05-12T06:18:37.198Z,42.38
2019-05-12T06:21:35.617Z,42.08
2019-05-12T06:24:27.413Z,36.48
2019-05-12T06:27:24.284Z,37.42
2019-05-12T06:30:19.817Z,32.88
2019-05-12T06:33:15.091Z,30.52
2019-05-12T06:36:14.093Z,37.33
2019-05-12T06:39:20.541Z,42.98
2019-05-12T06:42:14.477Z,29.57
2019-05-12T06:45:07.161Z,28.83
2019-05-12T06:48:04.128Z,30.62
2019-05-12T06:50:58.935Z,27.62
2019-05-12T06:53:53.607Z,30.25
2019-05-12T06:56:50.133Z,43.60
2019-05-12T06:59:50.895Z,33.33
2019-05-12T07:02:49.272Z,28.42
2019-05-12T07:05:38.204Z,36.42
2019-05-12T07:08:33.348Z,40.55
2019-05-12T07:11:41.295Z,22.40
2019-05-12T07:14:27.110Z,23.85
2019-05-12T07:17:35.662Z,21.45
2019-05-12T07:20:29.260Z,29.92
2019-05-12T07:23:25.849Z,30.80
2019-05-12T07:26:19.604Z,29.37
2019-05-12T07:29:15.300Z,30.15
2019-05-12T07:32:16.579Z,22.58
2019-05-12T07:35:05.666Z,26.60
2019-05-12T07:38:04.256Z,36.63
2019-05-12T07:41:00.884Z,28.35
2019-05-12T07:43:59.050Z,32.28
2019-05-12T07:46:49.587Z,32.73
2019-05-12T07:49:44.642Z,30.92
2019-05-12T07:52:39.623Z,35.60
2019-05-12T07:55:34.517Z,29.72
2019-05-12T07:58:29.096Z,26.68
2019-05-12T08:01:24.379Z,37.05
2019-05-12T08:04:19.498Z,37.00
2019-05-12T08:07:19.763Z,33.88
2019-05-12T08:10:15.769Z,33.48
2019-05-12T08:13:08.692Z,32.63
2019-05-12T08:16:03.761Z,35.03
2019-05-12T08:18:59.332Z,38.23
2019-05-12T08:21:56.346Z,43.90
2019-05-12T08:24:53.582Z,35.80
2019-05-12T08:27:51.346Z,43.23
2019-05-12T08:30:51.829Z,39.50
2019-05-12T08:33:40.332Z,36.45
2019-05-12T08:36:37.451Z,31.68
2019-05-12T08:39:33.704Z,31.10
2019-05-12T08:42:27.324Z,33.08
2019-05-12T08:45:25.120Z,29.50
2019-05-12T08:48:21.659Z,32.83
2019-05-12T08:51:19.787Z,34.63
2019-05-12T08:54:10.517Z,30.15
2019-05-12T08:57:05.718Z,30.08
2019-05-12T09:00:03.295Z,38.85
2019-05-12T09:02:56.943Z,32.80
2019-05-12T09:05:53.955Z,33.38
2019-05-12T09:08:49.462Z,30.35
2019-05-12T09:11:44.623Z,28.77
2019-05-12T09:14:41.403Z,25.15
2019-05-12T09:17:37.609Z,23.15
2019-05-12T09:20:33.058Z,29.50
2019-05-12T09:23:26.504Z,26.60
2019-05-12T09:26:24.968Z,25.60
2019-05-12T09:29:16.059Z,24.27
2019-05-12T09:32:10.886Z,31.75
2019-05-12T09:35:05.773Z,27.10
2019-05-12T09:38:02.994Z,22.15
2019-05-12T09:41:00.714Z,26.82
2019-05-12T09:43:53.396Z,28.15
2019-05-12T09:46:47.355Z,24.15
2019-05-12T09:49:44.278Z,24.32
2019-05-12T09:52:37.731Z,27.05
2019-05-12T09:55:34.264Z,31.05
2019-05-12T09:58:28.280Z,25.80
2019-05-12T10:01:24.168Z,25.82
2019-05-12T10:04:19.658Z,33.73
2019-05-12T10:07:15.515Z,37.53
2019-05-12T10:10:14.123Z,41.98
2019-05-12T10:13:09.701Z,30.75
2019-05-12T10:16:08.674Z,28.23
2019-05-12T10:18:59.903Z,24.45
2019-05-12T10:21:59.316Z,30.37
2019-05-12T10:24:56.034Z,35.98
2019-05-12T10:27:46.274Z,22.52
2019-05-12T10:30:42.068Z,24.70
2019-05-12T10:33:36.412Z,25.30
2019-05-12T10:36:33.756Z,26.57
2019-05-12T10:39:28.138Z,40.28
2019-05-12T10:42:24.315Z,21.65
2019-05-12T10:45:20.645Z,29.63
2019-05-12T10:48:14.361Z,28.02
2019-05-12T10:51:09.387Z,31.52
2019-05-12T10:54:09.990Z,30.20
2019-05-12T10:57:00.126Z,28.85
2019-05-12T10:59:54.945Z,45.20
2019-05-12T11:02:49.911Z,28.42
2019-05-12T11:05:45.774Z,42.83
2019-05-12T11:08:41.248Z,28.73
2019-05-12T11:11:42.186Z,29.32
2019-05-12T11:14:30.841Z,29.42
2019-05-12T11:17:26.207Z,25.62
2019-05-12T11:20:21.403Z,26.35
2019-05-12T11:23:16.231Z,37.42
2019-05-12T11:26:10.811Z,26.80
2019-05-12T11:29:05.543Z,21.40
2019-05-12T11:32:01.535Z,29.80
2019-05-12T11:34:56.367Z,23.90
2019-05-12T11:37:50.802Z,27.35
2019-05-12T11:40:46.459Z,24.87
2019-05-12T11:43:41.464Z,43.10
2019-05-12T11:46:36.765Z,34.95
2019-05-12T11:49:33.485Z,29.67
2019-05-12T11:52:27.343Z,28.00
2019-05-12T11:55:29.869Z,36.63
2019-05-12T11:58:17.547Z,37.20
2019-05-12T12:01:13.450Z,51.35
2019-05-12T12:04:07.941Z,27.07
2019-05-12T12:07:04.821Z,39.48
2019-05-12T12:09:59.649Z,67.40
2019-05-12T12:12:54.414Z,25.10
2019-05-12T12:15:49.804Z,37.30
2019-05-12T12:18:46.698Z,27.35
2019-05-12T12:21:40.349Z,49.73
2019-05-12T12:24:38.285Z,32.80
2019-05-12T12:27:31.510Z,33.80
2019-05-12T12:30:26.682Z,32.17
2019-05-12T12:33:23.483Z,40.55
2019-05-12T12:36:17.411Z,35.48
2019-05-12T12:39:13.163Z,44.40
2019-05-12T12:42:07.975Z,42.60
2019-05-12T12:45:05.193Z,37.70
2019-05-12T12:48:01.844Z,47.13
2019-05-12T12:51:00.739Z,54.50
2019-05-12T12:53:55.604Z,53.58
2019-05-12T12:56:50.193Z,45.05
2019-05-12T12:59:51.176Z,40.40
2019-05-12T13:02:45.090Z,42.23
2019-05-12T13:05:38.392Z,41.37
2019-05-12T13:08:34.208Z,36.83
2019-05-12T13:11:33.549Z,45.08
2019-05-12T13:14:28.684Z,43.78
2019-05-12T13:17:27.282Z,39.25
2019-05-12T13:20:17.682Z,41.63
2019-05-12T13:23:13.578Z,49.10
2019-05-12T13:26:07.648Z,34.95
2019-05-12T13:29:04.018Z,53.95
2019-05-12T13:32:00.084Z,49.53
2019-05-12T13:34:55.709Z,47.08
2019-05-12T13:37:56.456Z,43.63
2019-05-12T13:40:45.632Z,62.53
2019-05-12T13:43:40.766Z,56.37
2019-05-12T13:46:35.838Z,61.20
2019-05-12T13:49:38.473Z,66.77
2019-05-12T13:52:30.463Z,59.40
2019-05-12T13:55:25.513Z,60.88
2019-05-12T13:58:20.132Z,66.57
2019-05-12T14:01:19.937Z,51.58
2019-05-12T14:04:10.410Z,52.13
2019-05-12T14:07:09.366Z,74.25
2019-05-12T14:10:00.444Z,61.30
2019-05-12T14:12:55.295Z,54.67
2019-05-12T14:15:49.987Z,55.20
2019-05-12T14:18:44.699Z,58.15
2019-05-12T14:21:41.280Z,47.33
2019-05-12T14:24:42.125Z,55.85
2019-05-12T14:27:30.286Z,65.75
2019-05-12T14:30:25.851Z,49.30
2019-05-12T14:33:24.350Z,46.40
2019-05-12T14:36:22.069Z,61.83
2019-05-12T14:39:13.444Z,78.07
2019-05-12T14:42:08.458Z,81.17
2019-05-12T14:45:04.682Z,75.85
2019-05-12T14:47:59.987Z,88.95
2019-05-12T14:50:53.975Z,90.28
2019-05-12T14:53:48.905Z,82.82
2019-05-12T14:56:57.717Z,99.00
2019-05-12T14:59:50.628Z,71.28
2019-05-12T15:02:45.638Z,84.65
2019-05-12T15:05:50.415Z,89.28
2019-05-12T15:08:45.520Z,90.70
2019-05-12T15:11:43.723Z,68.80
2019-05-12T15:14:38.573Z,87.88
2019-05-12T15:17:35.067Z,80.32
2019-05-12T15:20:30.256Z,81.10
2019-05-12T15:23:32.375Z,87.82
2019-05-12T15:26:21.560Z,74.82
2019-05-12T15:29:19.938Z,85.60
2019-05-12T15:32:12.701Z,69.95
2019-05-12T15:35:07.300Z,90.00
2019-05-12T15:38:03.771Z,75.92
2019-05-12T15:40:59.424Z,70.92
2019-05-12T15:43:55.800Z,71.80
2019-05-12T15:46:53.557Z,62.95
2019-05-12T15:49:47.035Z,63.58
2019-05-12T15:52:44.863Z,58.38
2019-05-12T15:55:37.263Z,49.38
2019-05-12T15:58:33.544Z,56.05
2019-05-12T16:01:27.102Z,60.30
2019-05-12T16:04:23.194Z,60.60
2019-05-12T16:07:17.873Z,69.65
2019-05-12T16:10:14.539Z,67.53
2019-05-12T16:13:08.915Z,65.75
2019-05-12T16:16:06.597Z,64.25
2019-05-12T16:18:59.210Z,52.33
2019-05-12T16:21:54.391Z,58.80
2019-05-12T16:24:50.472Z,71.35
2019-05-12T16:27:45.102Z,45.15
2019-05-12T16:30:39.919Z,63.50
2019-05-12T16:33:34.875Z,54.50
2019-05-12T16:36:30.136Z,54.10
2019-05-12T16:39:24.954Z,126.80
2019-05-12T16:42:19.703Z,47.85
2019-05-12T16:45:14.475Z,50.80
2019-05-12T16:48:28.219Z,56.42
2019-05-12T16:51:05.065Z,54.63
2019-05-12T17:36:41.006Z,49.10
2019-05-12T17:39:39.111Z,47.83
2019-05-12T17:42:33.384Z,43.90
2019-05-12T17:45:29.877Z,46.92
2019-05-12T17:48:25.613Z,49.55
2019-05-12T17:51:25.509Z,42.40
2019-05-12T17:54:21.656Z,44.55
2019-05-12T17:57:15.923Z,43.25
2019-05-12T18:00:10.576Z,42.70
2019-05-12T18:03:16.650Z,43.40
2019-05-12T18:05:57.874Z,48.50
2019-05-12T18:08:53.424Z,45.83
2019-05-12T18:11:54.313Z,42.98
2019-05-12T18:14:51.614Z,44.93
2019-05-12T18:17:44.433Z,40.05
2019-05-12T18:20:40.074Z,42.93
2019-05-12T18:23:30.410Z,37.45
2019-05-12T18:26:24.827Z,33.28
2019-05-12T18:29:20.270Z,44.70
2019-05-12T18:32:14.907Z,41.60
2019-05-12T18:35:09.911Z,42.10
2019-05-12T18:38:07.870Z,33.13
2019-05-12T18:41:03.571Z,37.08
2019-05-12T18:43:56.922Z,37.05
2019-05-12T18:46:53.793Z,40.83
2019-05-12T18:49:48.189Z,39.58
2019-05-12T18:52:45.898Z,40.70
2019-05-12T18:55:40.417Z,34.75
2019-05-12T18:58:34.936Z,35.17
2019-05-12T19:01:28.436Z,34.03
2019-05-12T19:04:23.517Z,37.53
2019-05-12T19:07:18.474Z,33.28
2019-05-12T19:10:14.154Z,34.78
2019-05-12T19:13:09.028Z,37.80
2019-05-12T19:16:07.060Z,39.88
2019-05-12T19:18:59.558Z,40.95
2019-05-12T19:22:04.897Z,32.10
2019-05-12T19:24:58.237Z,31.55
2019-05-12T19:27:49.967Z,33.40
2019-05-12T19:30:43.796Z,36.70
2019-05-12T19:33:43.858Z,30.65
2019-05-12T19:36:36.018Z,29.42
2019-05-12T19:39:28.402Z,25.30
2019-05-12T19:42:24.421Z,33.83
2019-05-12T19:45:21.616Z,27.77
2019-05-12T19:48:23.938Z,29.23
2019-05-12T19:51:20.812Z,29.75
2019-05-12T19:54:04.506Z,32.33
2019-05-12T19:56:59.286Z,30.02
2019-05-12T19:59:55.723Z,28.95
2019-05-12T20:02:50.400Z,32.70
2019-05-12T20:05:45.719Z,29.77
2019-05-12T20:08:40.494Z,27.55
2019-05-12T20:11:35.392Z,28.23
2019-05-12T20:14:29.833Z,38.23
2019-05-12T20:17:24.454Z,28.67
2019-05-12T20:20:19.104Z,27.17
2019-05-12T20:23:14.335Z,31.70
2019-05-12T20:26:09.188Z,31.77
2019-05-12T20:29:04.572Z,34.95
2019-05-12T20:31:59.260Z,36.15
2019-05-12T20:34:55.432Z,32.25
2019-05-12T20:37:53.015Z,32.23
2019-05-12T20:40:45.426Z,37.42
2019-05-12T20:43:43.586Z,33.13
2019-05-12T20:46:35.954Z,30.72
2019-05-12T20:49:33.470Z,28.95
2019-05-12T20:52:26.399Z,35.15
2019-05-12T20:55:23.280Z,33.80
2019-05-12T20:58:16.869Z,36.42
2019-05-12T21:01:13.813Z,30.85
2019-05-12T21:04:07.727Z,31.45
2019-05-12T21:07:04.384Z,32.35
2019-05-12T21:09:57.735Z,30.92
2019-05-12T21:12:54.163Z,29.52
2019-05-12T21:15:47.712Z,35.88
2019-05-12T21:18:47.963Z,29.37
2019-05-12T21:21:38.639Z,33.35
2019-05-12T21:24:35.944Z,39.18
2019-05-12T21:27:28.169Z,35.48
2019-05-12T21:30:24.674Z,30.62
2019-05-12T21:33:18.782Z,31.20
2019-05-12T21:36:17.382Z,38.88
2019-05-12T21:39:10.768Z,32.75
2019-05-12T21:42:05.518Z,31.52
2019-05-12T21:45:00.500Z,35.90
2019-05-12T21:47:56.721Z,34.90
2019-05-12T21:50:50.459Z,38.08
2019-05-12T21:53:50.666Z,31.45
2019-05-12T21:56:44.897Z,38.30
2019-05-12T21:59:41.088Z,40.73
2019-05-12T22:02:35.920Z,44.10
2019-05-12T22:05:48.093Z,38.70
2019-05-12T22:08:26.870Z,44.00
2019-05-12T22:11:23.752Z,45.67
2019-05-12T22:14:16.656Z,42.20
2019-05-12T22:17:13.672Z,37.80
2019-05-12T22:20:14.803Z,35.40
2019-05-12T22:23:09.114Z,34.05
2019-05-12T22:26:00.380Z,32.42
2019-05-12T22:28:55.340Z,33.70
2019-05-12T22:31:50.861Z,35.90
2019-05-12T22:34:46.464Z,33.33
2019-05-12T22:37:41.515Z,34.43
2019-05-12T22:40:36.422Z,38.58
2019-05-12T22:43:45.733Z,38.63
2019-05-12T22:46:37.434Z,38.30
2019-05-12T22:49:33.879Z,32.08
2019-05-12T22:52:28.275Z,35.25
2019-05-12T22:55:27.818Z,38.58
2019-05-12T22:58:22.365Z,34.00
2019-05-12T23:01:14.419Z,36.05
2019-05-12T23:04:09.760Z,36.55
2019-05-12T23:07:04.998Z,37.50
2019-05-12T23:10:00.588Z,37.33
2019-05-12T23:12:57.023Z,40.40
2019-05-12T23:15:50.552Z,38.78
2019-05-12T23:18:48.283Z,32.00
2019-05-12T23:21:43.932Z,36.00
2019-05-12T23:24:40.707Z,45.00
2019-05-12T23:27:33.363Z,36.23
2019-05-12T23:30:28.470Z,45.12
2019-05-12T23:33:31.467Z,35.70
2019-05-12T23:36:19.775Z,39.23
2019-05-12T23:39:14.282Z,44.23
2019-05-12T23:42:08.948Z,42.88
2019-05-12T23:45:03.899Z,48.33
2019-05-12T23:47:58.879Z,48.08
2019-05-12T23:50:54.305Z,54.58
2019-05-12T23:53:48.607Z,48.00
2019-05-12T23:56:44.416Z,53.50
2019-05-12T23:59:39.402Z,52.03
